createdAt,value
2024-04-06T00:00:55.865Z,34.91
2024-04-06T00:01:55.940Z,34.95
2024-04-06T00:02:55.999Z,34.92
2024-04-06T00:03:56.079Z,34.97
2024-04-06T00:04:56.157Z,34.92
2024-04-06T00:05:56.239Z,34.93
2024-04-06T00:06:56.316Z,34.94
2024-04-06T00:08:06.017Z,34.94
2024-04-06T00:08:57.365Z,34.90
2024-04-06T00:09:56.355Z,34.92
2024-04-06T00:10:56.352Z,34.95
2024-04-06T00:11:56.358Z,34.95
2024-04-06T00:12:56.373Z,34.93
2024-04-06T00:13:56.361Z,34.96
2024-04-06T00:14:56.364Z,34.95
2024-04-06T00:15:56.379Z,34.93
2024-04-06T00:16:56.434Z,34.97
2024-04-06T00:17:56.524Z,34.93
2024-04-06T00:18:56.579Z,34.93
2024-04-06T00:19:56.648Z,34.91
2024-04-06T00:20:56.740Z,34.93
2024-04-06T00:21:56.803Z,34.93
2024-04-06T00:22:56.871Z,34.96
2024-04-06T00:23:56.930Z,34.93
2024-04-06T00:24:57.004Z,34.89
2024-04-06T00:25:57.067Z,34.92
2024-04-06T00:26:57.150Z,34.91
2024-04-06T00:27:57.211Z,34.93
2024-04-06T00:28:57.275Z,34.93
2024-04-06T00:29:57.331Z,34.92
2024-04-06T00:30:57.397Z,34.92
2024-04-06T00:31:57.447Z,34.93
2024-04-06T00:32:57.517Z,34.97
2024-04-06T00:33:57.591Z,34.92
2024-04-06T00:34:57.670Z,34.96
2024-04-06T00:35:57.757Z,34.88
2024-04-06T00:36:57.790Z,34.89
2024-04-06T00:37:57.875Z,34.94
2024-04-06T00:38:57.924Z,34.89
2024-04-06T00:39:57.975Z,34.93
2024-04-06T00:40:58.034Z,34.93
2024-04-06T00:41:58.113Z,34.93
2024-04-06T00:42:58.184Z,34.93
2024-04-06T00:44:00.139Z,34.95
2024-04-06T00:44:58.258Z,34.86
2024-04-06T00:45:58.262Z,34.96
2024-04-06T00:46:58.255Z,34.89
2024-04-06T00:47:58.261Z,34.90
2024-04-06T00:48:58.259Z,34.86
2024-04-06T00:49:58.262Z,34.92
2024-04-06T00:50:58.269Z,34.86
2024-04-06T00:51:58.265Z,34.89
2024-04-06T00:52:58.266Z,34.91
2024-04-06T00:53:58.265Z,34.86
2024-04-06T00:54:58.278Z,34.92
2024-04-06T00:55:58.283Z,34.89
2024-04-06T00:56:58.310Z,34.92
2024-04-06T00:57:58.280Z,34.91
2024-04-06T00:58:58.302Z,34.88
2024-04-06T00:59:58.276Z,34.89
2024-04-06T01:00:58.286Z,34.90
2024-04-06T01:02:04.990Z,34.90
2024-04-06T01:02:59.291Z,34.92
2024-04-06T01:03:58.303Z,34.89
2024-04-06T01:04:58.297Z,34.88
2024-04-06T01:05:58.322Z,34.93
2024-04-06T01:06:58.291Z,34.90
2024-04-06T01:07:58.312Z,34.88
2024-04-06T01:08:58.434Z,34.88
2024-04-06T01:09:58.293Z,34.89
2024-04-06T01:10:58.346Z,34.86
2024-04-06T01:11:58.396Z,34.86
2024-04-06T01:12:58.543Z,34.85
2024-04-06T01:13:58.528Z,34.88
2024-04-06T01:14:58.598Z,34.89
2024-04-06T01:15:58.633Z,34.89
2024-04-06T01:16:58.691Z,34.86
2024-04-06T01:17:58.738Z,34.89
2024-04-06T01:18:58.785Z,34.90
2024-04-06T01:19:58.827Z,34.91
2024-04-06T01:20:58.872Z,34.81
2024-04-06T01:21:58.933Z,34.88
2024-04-06T01:22:59.003Z,34.89
2024-04-06T01:23:59.069Z,34.86
2024-04-06T01:24:59.115Z,34.89
2024-04-06T01:25:59.182Z,34.88
2024-04-06T01:26:59.263Z,34.90
2024-04-06T01:27:59.327Z,34.86
2024-04-06T01:28:59.388Z,34.89
2024-04-06T01:29:59.469Z,34.86
2024-04-06T01:30:59.550Z,34.91
2024-04-06T01:31:59.579Z,34.89
2024-04-06T01:32:59.648Z,34.91
2024-04-06T01:33:59.712Z,34.86
2024-04-06T01:34:59.789Z,34.84
2024-04-06T01:35:59.820Z,34.86
2024-04-06T01:36:59.856Z,34.82
2024-04-06T01:37:59.915Z,34.84
2024-04-06T01:38:59.972Z,34.87
2024-04-06T01:40:00.043Z,34.85
2024-04-06T01:41:00.108Z,34.86
2024-04-06T01:42:00.189Z,34.85
2024-04-06T01:43:00.217Z,34.85
2024-04-06T01:44:00.260Z,34.87
2024-04-06T01:45:00.333Z,34.88
2024-04-06T01:46:00.347Z,34.87
2024-04-06T01:47:00.416Z,34.86
2024-04-06T01:48:00.439Z,34.84
2024-04-06T01:49:00.500Z,34.86
2024-04-06T01:50:00.575Z,34.86
2024-04-06T01:51:00.608Z,34.90
2024-04-06T01:52:00.662Z,34.84
2024-04-06T01:53:00.726Z,34.92
2024-04-06T01:54:00.773Z,34.87
2024-04-06T01:55:00.828Z,34.88
2024-04-06T01:56:00.860Z,34.91
2024-04-06T01:57:00.917Z,34.88
2024-04-06T01:58:00.970Z,34.88
2024-04-06T01:59:01.015Z,34.90
2024-04-06T02:00:01.046Z,34.88
2024-04-06T02:01:01.086Z,34.88
2024-04-06T02:02:01.136Z,34.91
2024-04-06T02:03:01.166Z,34.92
2024-04-06T02:04:01.214Z,34.89
2024-04-06T02:05:01.268Z,34.88
2024-04-06T02:06:01.303Z,34.84
2024-04-06T02:07:01.353Z,34.85
2024-04-06T02:08:01.383Z,34.83
2024-04-06T02:09:01.447Z,34.88
2024-04-06T02:10:01.576Z,34.84
2024-04-06T02:11:01.496Z,34.85
2024-04-06T02:12:01.595Z,34.83
2024-04-06T02:13:01.640Z,34.86
2024-04-06T02:14:01.698Z,34.84
2024-04-06T02:15:01.748Z,34.88
2024-04-06T02:16:01.811Z,34.84
2024-04-06T02:17:01.855Z,34.87
2024-04-06T02:18:01.890Z,34.90
2024-04-06T02:19:01.925Z,34.83
2024-04-06T02:20:01.999Z,34.88
2024-04-06T02:21:02.035Z,34.84
2024-04-06T02:22:02.095Z,34.87
2024-04-06T02:23:02.122Z,34.84
2024-04-06T02:24:02.190Z,34.85
2024-04-06T02:25:02.269Z,34.85
2024-04-06T02:26:02.282Z,34.83
2024-04-06T02:27:02.330Z,34.85
2024-04-06T02:28:02.395Z,34.84
2024-04-06T02:29:02.434Z,34.85
2024-04-06T02:30:02.511Z,34.85
2024-04-06T02:31:02.548Z,34.85
2024-04-06T02:32:02.610Z,34.87
2024-04-06T02:33:02.665Z,34.79
2024-04-06T02:34:02.713Z,34.81
2024-04-06T02:35:02.742Z,34.84
2024-04-06T02:36:02.770Z,34.84
2024-04-06T02:37:02.826Z,34.83
2024-04-06T02:38:02.884Z,34.79
2024-04-06T02:39:02.909Z,34.80
2024-04-06T02:40:02.972Z,34.81
2024-04-06T02:41:03.036Z,34.85
2024-04-06T02:42:03.069Z,34.86
2024-04-06T02:43:03.124Z,34.81
2024-04-06T02:44:03.180Z,34.88
2024-04-06T02:45:03.217Z,34.81
2024-04-06T02:46:03.306Z,34.81
2024-04-06T02:47:03.356Z,34.84
2024-04-06T02:48:03.355Z,34.79
2024-04-06T02:49:03.392Z,34.83
2024-04-06T02:50:03.448Z,34.84
2024-04-06T02:51:03.494Z,34.80
2024-04-06T02:52:03.539Z,34.83
2024-04-06T02:53:03.572Z,34.83
2024-04-06T02:54:03.666Z,34.84
2024-04-06T02:55:03.694Z,34.80
2024-04-06T02:56:03.739Z,34.81
2024-04-06T02:57:03.791Z,34.85
2024-04-06T02:58:03.820Z,34.77
2024-04-06T02:59:03.881Z,34.80
2024-04-06T03:00:03.953Z,34.80
2024-04-06T03:01:04.005Z,34.79
2024-04-06T03:02:04.050Z,34.81
2024-04-06T03:03:04.110Z,34.79
2024-04-06T03:04:04.161Z,34.76
2024-04-06T03:05:04.208Z,34.79
2024-04-06T03:06:04.254Z,34.77
2024-04-06T03:07:04.290Z,34.80
2024-04-06T03:08:04.351Z,34.79
2024-04-06T03:09:04.386Z,34.78
2024-04-06T03:10:04.430Z,34.77
2024-04-06T03:11:04.466Z,34.79
2024-04-06T03:12:04.515Z,34.77
2024-04-06T03:13:04.569Z,34.76
2024-04-06T03:14:04.602Z,34.76
2024-04-06T03:15:04.660Z,34.80
2024-04-06T03:16:04.691Z,34.79
2024-04-06T03:17:04.742Z,34.77
2024-04-06T03:18:04.774Z,34.78
2024-04-06T03:19:04.812Z,34.79
2024-04-06T03:20:04.831Z,34.80
2024-04-06T03:21:04.847Z,34.78
2024-04-06T03:22:04.872Z,34.82
2024-04-06T03:23:04.873Z,34.82
2024-04-06T03:24:04.921Z,34.80
2024-04-06T03:25:04.930Z,34.77
2024-04-06T03:26:04.973Z,34.80
2024-04-06T03:27:04.981Z,34.79
2024-04-06T03:28:05.051Z,34.80
2024-04-06T03:29:05.049Z,34.74
2024-04-06T03:30:05.073Z,34.76
2024-04-06T03:31:05.115Z,34.83
2024-04-06T03:32:05.168Z,34.78
2024-04-06T03:33:05.183Z,34.80
2024-04-06T03:34:05.232Z,34.78
2024-04-06T03:35:05.273Z,34.82
2024-04-06T03:36:05.302Z,34.80
2024-04-06T03:37:05.314Z,34.77
2024-04-06T03:38:05.326Z,34.78
2024-04-06T03:39:05.350Z,34.73
2024-04-06T03:40:05.385Z,34.76
2024-04-06T03:41:05.392Z,34.76
2024-04-06T03:42:05.389Z,34.77
2024-04-06T03:43:05.436Z,34.77
2024-04-06T03:44:05.399Z,34.75
2024-04-06T03:45:05.446Z,34.76
2024-04-06T03:46:05.432Z,34.77
2024-04-06T03:47:05.434Z,34.74
2024-04-06T03:48:05.467Z,34.77
2024-04-06T03:49:05.470Z,34.76
2024-04-06T03:50:05.474Z,34.80
2024-04-06T03:51:05.482Z,34.74
2024-04-06T03:52:05.501Z,34.77
2024-04-06T03:53:05.548Z,34.73
2024-04-06T03:54:05.540Z,34.75
2024-04-06T03:55:05.578Z,34.78
2024-04-06T03:56:05.603Z,34.76
2024-04-06T03:57:05.621Z,34.76
2024-04-06T03:58:05.643Z,34.78
2024-04-06T03:59:05.782Z,34.74
2024-04-06T04:00:05.687Z,34.72
2024-04-06T04:01:05.687Z,34.74
2024-04-06T04:02:05.710Z,34.76
2024-04-06T04:03:05.743Z,34.74
2024-04-06T04:04:05.730Z,34.72
2024-04-06T04:05:05.743Z,34.77
2024-04-06T04:06:05.749Z,34.73
2024-04-06T04:07:05.755Z,34.76
2024-04-06T04:08:05.778Z,34.73
2024-04-06T04:09:05.790Z,34.74
2024-04-06T04:10:05.780Z,34.72
2024-04-06T04:11:05.775Z,34.72
2024-04-06T04:12:05.780Z,34.73
2024-04-06T04:13:05.779Z,34.72
2024-04-06T04:14:05.794Z,34.76
2024-04-06T04:15:05.792Z,34.74
2024-04-06T04:16:05.791Z,34.77
2024-04-06T04:17:12.983Z,34.79
2024-04-06T04:18:12.990Z,34.82
2024-04-06T04:19:12.983Z,34.74
2024-04-06T04:20:12.967Z,34.77
2024-04-06T04:21:12.970Z,34.72
2024-04-06T04:22:12.970Z,34.75
2024-04-06T04:23:12.980Z,34.70
2024-04-06T04:24:12.976Z,34.75
2024-04-06T04:25:12.991Z,34.69
2024-04-06T04:26:12.997Z,34.70
2024-04-06T04:27:12.980Z,34.74
2024-04-06T04:28:12.982Z,34.73
2024-04-06T04:29:13.013Z,34.70
2024-04-06T04:30:12.991Z,34.74
2024-04-06T04:31:20.207Z,34.75
2024-04-06T04:32:20.210Z,34.74
2024-04-06T04:33:20.198Z,34.75
2024-04-06T04:34:20.314Z,34.74
2024-04-06T04:35:20.205Z,34.70
2024-04-06T04:36:20.191Z,34.71
2024-04-06T04:37:20.252Z,34.75
2024-04-06T04:38:20.208Z,34.74
2024-04-06T04:39:20.188Z,34.74
2024-04-06T04:40:20.214Z,34.70
2024-04-06T04:41:20.210Z,34.70
2024-04-06T04:42:20.201Z,34.71
2024-04-06T04:43:20.182Z,34.73
2024-04-06T04:44:35.704Z,34.74
2024-04-06T04:45:21.200Z,34.69
2024-04-06T04:46:20.188Z,34.73
2024-04-06T04:47:20.193Z,34.68
2024-04-06T04:48:20.205Z,34.70
2024-04-06T04:49:20.218Z,34.71
2024-04-06T04:50:20.206Z,34.70
2024-04-06T04:51:20.194Z,34.71
2024-04-06T04:52:20.219Z,34.73
2024-04-06T04:53:20.223Z,34.66
2024-04-06T04:54:20.200Z,34.69
2024-04-06T04:55:20.779Z,34.68
2024-04-06T04:56:20.202Z,34.73
2024-04-06T04:57:20.197Z,34.70
2024-04-06T04:58:20.206Z,34.69
2024-04-06T04:59:20.226Z,34.66
2024-04-06T05:00:20.240Z,34.68
2024-04-06T05:01:20.210Z,34.66
2024-04-06T05:02:20.219Z,34.68
2024-04-06T05:03:20.211Z,34.65
2024-04-06T05:04:20.211Z,34.66
2024-04-06T05:05:20.226Z,34.70
2024-04-06T05:06:20.219Z,34.62
2024-04-06T05:07:20.225Z,34.62
2024-04-06T05:08:20.219Z,34.65
2024-04-06T05:09:20.233Z,34.61
2024-04-06T05:10:20.233Z,34.64
2024-04-06T05:11:20.228Z,34.64
2024-04-06T05:12:20.226Z,34.62
2024-04-06T05:13:20.285Z,34.67
2024-04-06T05:14:20.240Z,34.60
2024-04-06T05:15:20.237Z,34.62
2024-04-06T05:16:20.232Z,34.59
2024-04-06T05:17:20.235Z,34.57
2024-04-06T05:18:20.234Z,34.60
2024-04-06T05:19:20.239Z,34.57
2024-04-06T05:20:20.250Z,34.61
2024-04-06T05:21:20.247Z,34.61
2024-04-06T05:22:20.248Z,34.56
2024-04-06T05:23:20.270Z,34.61
2024-04-06T05:24:20.254Z,34.56
2024-04-06T05:25:20.280Z,34.55
2024-04-06T05:26:20.255Z,34.55
2024-04-06T05:27:20.295Z,34.52
2024-04-06T05:28:20.258Z,34.54
2024-04-06T05:29:20.260Z,34.51
2024-04-06T05:30:20.262Z,34.58
2024-04-06T05:31:20.280Z,34.54
2024-04-06T05:32:20.271Z,34.53
2024-04-06T05:33:20.260Z,34.51
2024-04-06T05:34:20.270Z,34.49
2024-04-06T05:35:20.271Z,34.51
2024-04-06T05:36:20.308Z,34.46
2024-04-06T05:37:20.307Z,34.46
2024-04-06T05:38:20.343Z,34.46
2024-04-06T05:39:20.339Z,34.46
2024-04-06T05:40:20.375Z,34.50
2024-04-06T05:41:20.372Z,34.46
2024-04-06T05:42:20.382Z,34.45
2024-04-06T05:43:20.415Z,34.43
2024-04-06T05:44:20.451Z,34.43
2024-04-06T05:45:20.834Z,34.44
2024-04-06T05:46:20.533Z,34.41
2024-04-06T05:47:20.578Z,34.43
2024-04-06T05:48:20.619Z,34.40
2024-04-06T05:49:20.692Z,34.40
2024-04-06T05:50:20.708Z,34.36
2024-04-06T05:51:20.767Z,34.39
2024-04-06T05:52:20.812Z,34.35
2024-04-06T05:53:20.874Z,34.35
2024-04-06T05:54:20.886Z,34.35
2024-04-06T05:55:20.941Z,34.30
2024-04-06T05:56:20.984Z,34.31
2024-04-06T05:57:21.040Z,34.31
2024-04-06T05:58:21.090Z,34.26
2024-04-06T05:59:21.134Z,34.26
2024-04-06T06:00:21.205Z,34.30
2024-04-06T06:01:21.266Z,34.29
2024-04-06T06:02:21.347Z,34.26
2024-04-06T06:03:21.424Z,34.25
2024-04-06T06:04:21.480Z,34.29
2024-04-06T06:05:21.538Z,34.25
2024-04-06T06:06:21.594Z,34.26
2024-04-06T06:07:21.634Z,34.25
2024-04-06T06:08:21.718Z,34.27
2024-04-06T06:09:21.782Z,34.23
2024-04-06T06:10:21.855Z,34.17
2024-04-06T06:11:21.932Z,34.24
2024-04-06T06:12:21.979Z,34.20
2024-04-06T06:13:22.080Z,34.23
2024-04-06T06:14:23.820Z,34.18
2024-04-06T06:15:22.188Z,34.21
2024-04-06T06:16:22.256Z,34.20
2024-04-06T06:17:22.308Z,34.19
2024-04-06T06:18:22.377Z,34.15
2024-04-06T06:19:22.449Z,34.15
2024-04-06T06:20:22.531Z,34.20
2024-04-06T06:21:22.595Z,34.16
2024-04-06T06:22:22.702Z,34.14
2024-04-06T06:23:22.744Z,34.17
2024-04-06T06:24:22.818Z,34.19
2024-04-06T06:25:22.908Z,34.18
2024-04-06T06:26:22.964Z,34.17
2024-04-06T06:27:23.031Z,34.16
2024-04-06T06:28:23.098Z,34.15
2024-04-06T06:29:23.149Z,34.13
2024-04-06T06:30:23.224Z,34.13
2024-04-06T06:31:23.320Z,34.11
2024-04-06T06:32:23.411Z,34.17
2024-04-06T06:33:23.428Z,34.13
2024-04-06T06:34:23.498Z,34.10
2024-04-06T06:35:23.566Z,34.13
2024-04-06T06:38:25.670Z,34.12
2024-04-06T06:41:23.622Z,34.08
2024-04-06T06:42:23.636Z,34.08
2024-04-06T06:43:23.633Z,34.05
2024-04-06T06:44:23.623Z,34.04
2024-04-06T06:45:23.661Z,34.02
2024-04-06T06:46:23.645Z,34.02
2024-04-06T06:47:23.656Z,34.03
2024-04-06T06:48:23.661Z,33.97
2024-04-06T06:49:23.638Z,34.02
2024-04-06T06:50:23.660Z,33.97
2024-04-06T06:51:23.645Z,33.95
2024-04-06T06:52:23.634Z,33.97
2024-04-06T06:53:23.640Z,33.89
2024-04-06T06:54:23.643Z,33.88
2024-04-06T06:55:23.653Z,33.87
2024-04-06T06:56:23.667Z,33.85
2024-04-06T06:57:23.663Z,33.86
2024-04-06T06:58:23.650Z,33.84
2024-04-06T06:59:23.660Z,33.88
2024-04-06T07:00:23.668Z,33.83
2024-04-06T07:01:23.685Z,33.79
2024-04-06T07:02:23.659Z,33.81
2024-04-06T07:03:23.681Z,33.73
2024-04-06T07:04:23.682Z,33.80
2024-04-06T07:05:23.679Z,33.72
2024-04-06T07:07:23.696Z,33.73
2024-04-06T07:08:23.680Z,33.73
2024-04-06T07:09:23.703Z,33.72
2024-04-06T07:10:23.683Z,33.71
2024-04-06T07:11:23.708Z,33.70
2024-04-06T07:12:23.698Z,33.65
2024-04-06T07:13:23.682Z,33.65
2024-04-06T07:14:23.682Z,33.64
2024-04-06T07:15:23.703Z,33.64
2024-04-06T07:16:23.675Z,33.60
2024-04-06T07:17:26.491Z,33.66
2024-04-06T07:18:23.684Z,33.66
2024-04-06T07:19:23.685Z,33.60
2024-04-06T07:20:23.700Z,33.59
2024-04-06T07:21:23.759Z,33.59
2024-04-06T07:22:23.690Z,33.56
2024-04-06T07:23:23.698Z,33.54
2024-04-06T07:24:23.706Z,33.53
2024-04-06T07:25:23.701Z,33.55
2024-04-06T07:26:23.705Z,33.52
2024-04-06T07:27:23.731Z,33.51
2024-04-06T07:28:23.729Z,33.48
2024-04-06T07:29:23.709Z,33.47
2024-04-06T07:30:23.718Z,33.47
2024-04-06T07:31:23.719Z,33.45
2024-04-06T07:32:23.728Z,33.47
2024-04-06T07:33:23.702Z,33.39
2024-04-06T07:34:23.740Z,33.39
2024-04-06T07:35:23.728Z,33.39
2024-04-06T07:36:23.710Z,33.37
2024-04-06T07:37:23.694Z,33.39
2024-04-06T07:38:23.696Z,33.32
2024-04-06T07:39:23.714Z,33.33
2024-04-06T07:40:25.876Z,33.32
2024-04-06T07:41:23.754Z,33.28
2024-04-06T07:42:23.714Z,33.28
2024-04-06T07:43:23.716Z,33.30
2024-04-06T07:44:23.719Z,33.31
2024-04-06T07:45:23.782Z,33.25
2024-04-06T07:46:23.778Z,33.30
2024-04-06T07:47:23.848Z,33.24
2024-04-06T07:48:23.843Z,33.23
2024-04-06T07:49:23.861Z,33.20
2024-04-06T07:50:23.893Z,33.27
2024-04-06T07:51:23.914Z,33.20
2024-04-06T07:52:23.946Z,33.23
2024-04-06T07:53:23.980Z,33.26
2024-04-06T07:54:24.004Z,33.21
2024-04-06T07:55:24.043Z,33.20
2024-04-06T07:56:24.063Z,33.18
2024-04-06T07:57:24.089Z,33.14
2024-04-06T07:58:24.123Z,33.14
2024-04-06T07:59:24.165Z,33.15
2024-04-06T08:00:24.203Z,33.16
2024-04-06T08:01:24.205Z,33.11
2024-04-06T08:02:24.208Z,33.09
2024-04-06T08:03:24.239Z,33.07
2024-04-06T08:04:24.264Z,33.07
2024-04-06T08:05:24.289Z,33.07
2024-04-06T08:06:24.299Z,33.06
2024-04-06T08:07:24.320Z,33.00
2024-04-06T08:08:24.328Z,32.94
2024-04-06T08:09:24.386Z,33.00
2024-04-06T08:10:24.385Z,32.97
2024-04-06T08:11:24.400Z,32.93
2024-04-06T08:12:24.422Z,32.97
2024-04-06T08:13:24.418Z,32.91
2024-04-06T08:14:25.567Z,32.91
2024-04-06T08:15:24.453Z,32.89
2024-04-06T08:16:24.451Z,32.87
2024-04-06T08:17:24.450Z,32.81
2024-04-06T08:18:24.462Z,32.79
2024-04-06T08:19:24.609Z,32.76
2024-04-06T08:20:24.490Z,32.68
2024-04-06T08:21:24.479Z,32.67
2024-04-06T08:22:24.475Z,32.59
2024-04-06T08:23:24.487Z,32.53
2024-04-06T08:24:24.502Z,32.49
2024-04-06T08:25:24.530Z,32.49
2024-04-06T08:26:24.547Z,32.49
2024-04-06T08:27:24.600Z,32.52
2024-04-06T08:28:24.644Z,32.51
2024-04-06T08:29:24.694Z,32.51
2024-04-06T08:30:24.726Z,32.45
2024-04-06T08:31:24.778Z,32.48
2024-04-06T08:32:24.848Z,32.52
2024-04-06T08:33:24.894Z,32.47
2024-04-06T08:34:24.942Z,32.44
2024-04-06T08:35:25.007Z,32.49
2024-04-06T08:36:25.060Z,32.44
2024-04-06T08:37:25.147Z,32.47
2024-04-06T08:38:25.676Z,32.44
2024-04-06T08:39:25.255Z,32.37
2024-04-06T08:40:25.328Z,32.41
2024-04-06T08:41:25.387Z,32.42
2024-04-06T08:42:25.476Z,32.39
2024-04-06T08:43:25.547Z,32.34
2024-04-06T08:44:25.813Z,32.35
2024-04-06T08:45:25.725Z,32.39
2024-04-06T08:46:25.740Z,32.34
2024-04-06T08:47:25.805Z,32.28
2024-04-06T08:48:25.872Z,32.28
2024-04-06T08:49:25.943Z,32.28
2024-04-06T08:50:26.153Z,32.30
2024-04-06T08:51:26.094Z,32.30
2024-04-06T08:52:26.150Z,32.28
2024-04-06T08:53:26.206Z,32.24
2024-04-06T08:54:26.303Z,32.27
2024-04-06T08:55:26.341Z,32.25
2024-04-06T08:56:26.396Z,32.19
2024-04-06T08:57:26.465Z,32.19
2024-04-06T08:58:26.518Z,32.18
2024-04-06T08:59:26.603Z,32.19
2024-04-06T09:00:26.663Z,32.15
2024-04-06T09:01:26.692Z,32.14
2024-04-06T09:02:26.754Z,32.15
2024-04-06T09:03:26.806Z,32.10
2024-04-06T09:04:26.850Z,32.13
2024-04-06T09:05:26.923Z,32.14
2024-04-06T09:06:26.949Z,32.08
2024-04-06T09:07:27.001Z,32.06
2024-04-06T09:08:27.082Z,32.06
2024-04-06T09:09:27.095Z,32.02
2024-04-06T09:10:27.141Z,31.99
2024-04-06T09:11:27.183Z,32.04
2024-04-06T09:12:27.240Z,31.99
2024-04-06T09:13:27.273Z,31.96
2024-04-06T09:14:27.354Z,31.99
2024-04-06T09:15:27.353Z,31.97
2024-04-06T09:16:27.381Z,31.98
2024-04-06T09:17:27.519Z,31.91
2024-04-06T09:18:30.643Z,31.88
2024-04-06T09:19:27.464Z,31.89
2024-04-06T09:20:27.451Z,31.92
2024-04-06T09:21:27.467Z,31.93
2024-04-06T09:22:27.469Z,31.90
2024-04-06T09:23:27.460Z,31.85
2024-04-06T09:24:27.465Z,31.88
2024-04-06T09:25:27.474Z,31.90
2024-04-06T09:26:27.465Z,31.86
2024-04-06T09:27:27.473Z,31.83
2024-04-06T09:28:27.487Z,31.85
2024-04-06T09:29:27.468Z,31.84
2024-04-06T09:30:27.490Z,31.80
2024-04-06T09:31:27.470Z,31.75
2024-04-06T09:32:27.535Z,31.81
2024-04-06T09:33:27.485Z,31.77
2024-04-06T09:34:27.485Z,31.70
2024-04-06T09:35:27.513Z,31.70
2024-04-06T09:36:27.492Z,31.70
2024-04-06T09:37:27.490Z,31.76
2024-04-06T09:38:27.486Z,31.73
2024-04-06T09:39:27.488Z,31.72
2024-04-06T09:40:27.515Z,31.69
2024-04-06T09:41:27.533Z,31.69
2024-04-06T09:42:27.493Z,31.68
2024-04-06T09:43:27.521Z,31.69
2024-04-06T09:44:27.493Z,31.72
2024-04-06T09:45:27.506Z,31.69
2024-04-06T09:46:27.511Z,31.61
2024-04-06T09:47:27.558Z,31.59
2024-04-06T09:48:27.514Z,31.62
2024-04-06T09:49:27.515Z,31.61
2024-04-06T09:50:27.547Z,31.61
2024-04-06T09:51:27.529Z,31.56
2024-04-06T09:52:27.539Z,31.59
2024-04-06T09:53:27.550Z,31.53
2024-04-06T09:54:27.524Z,31.55
2024-04-06T09:55:27.540Z,31.54
2024-04-06T09:56:27.530Z,31.52
2024-04-06T09:57:27.533Z,31.55
2024-04-06T09:58:27.552Z,31.50
2024-04-06T09:59:27.530Z,31.50
2024-04-06T10:00:27.584Z,31.49
2024-04-06T10:01:27.550Z,31.48
2024-04-06T10:02:27.566Z,31.51
2024-04-06T10:03:27.552Z,31.43
2024-04-06T10:04:27.590Z,31.45
2024-04-06T10:05:27.577Z,31.45
2024-04-06T10:06:27.542Z,31.43
2024-04-06T10:07:27.563Z,31.44
2024-04-06T10:08:27.575Z,31.43
2024-04-06T10:09:27.549Z,31.42
2024-04-06T10:10:27.571Z,31.42
2024-04-06T10:11:27.578Z,31.40
2024-04-06T10:12:27.575Z,31.38
2024-04-06T10:13:27.570Z,31.40
2024-04-06T10:14:27.587Z,31.36
2024-04-06T10:15:27.558Z,31.38
2024-04-06T10:16:27.572Z,31.38
2024-04-06T10:17:27.616Z,31.38
2024-04-06T10:18:27.574Z,31.37
2024-04-06T10:19:27.581Z,31.37
2024-04-06T10:20:27.617Z,31.35
2024-04-06T10:21:27.587Z,31.30
2024-04-06T10:22:27.593Z,31.33
2024-04-06T10:23:27.600Z,31.27
2024-04-06T10:24:27.586Z,31.30
2024-04-06T10:25:27.589Z,31.24
2024-04-06T10:26:27.584Z,31.26
2024-04-06T10:27:27.612Z,31.25
2024-04-06T10:28:27.592Z,31.30
2024-04-06T10:29:27.594Z,31.25
2024-04-06T10:30:27.587Z,31.22
2024-04-06T10:31:39.234Z,31.28
2024-04-06T10:32:28.619Z,31.22
2024-04-06T10:33:27.620Z,31.21
2024-04-06T10:34:33.550Z,31.18
2024-04-06T10:35:28.611Z,31.15
2024-04-06T10:36:27.598Z,31.17
2024-04-06T10:37:27.626Z,31.24
2024-04-06T10:38:27.635Z,31.20
2024-04-06T10:39:27.603Z,31.19
2024-04-06T10:40:27.610Z,31.17
2024-04-06T10:41:27.636Z,31.21
2024-04-06T10:42:27.605Z,31.14
2024-04-06T10:43:27.610Z,31.21
2024-04-06T10:44:27.650Z,31.16
2024-04-06T10:45:27.711Z,31.14
2024-04-06T10:46:27.784Z,31.20
2024-04-06T10:47:27.897Z,31.20
2024-04-06T10:48:27.886Z,31.15
2024-04-06T10:49:27.988Z,31.16
2024-04-06T10:50:28.015Z,31.18
2024-04-06T10:51:28.089Z,31.15
2024-04-06T10:52:28.160Z,31.18
2024-04-06T10:53:28.227Z,31.13
2024-04-06T10:54:28.233Z,31.16
2024-04-06T10:55:28.305Z,31.13
2024-04-06T10:56:28.350Z,31.11
2024-04-06T10:57:28.401Z,31.08
2024-04-06T10:58:28.455Z,31.10
2024-04-06T10:59:28.495Z,31.06
2024-04-06T11:00:28.576Z,31.01
2024-04-06T11:01:28.613Z,31.03
2024-04-06T11:02:28.655Z,31.02
2024-04-06T11:03:28.715Z,31.05
2024-04-06T11:04:28.739Z,31.01
2024-04-06T11:05:28.799Z,31.01
2024-04-06T11:06:28.824Z,31.02
2024-04-06T11:07:28.884Z,31.00
2024-04-06T11:08:28.923Z,30.98
2024-04-06T11:09:28.966Z,30.98
2024-04-06T11:10:29.000Z,30.98
2024-04-06T11:11:29.040Z,30.90
2024-04-06T11:12:29.087Z,30.92
2024-04-06T11:13:29.131Z,30.94
2024-04-06T11:14:29.164Z,30.95
2024-04-06T11:15:29.198Z,30.93
2024-04-06T11:16:29.243Z,30.93
2024-04-06T11:17:29.337Z,30.90
2024-04-06T11:18:29.341Z,30.97
2024-04-06T11:19:29.345Z,30.96
2024-04-06T11:20:29.410Z,30.95
2024-04-06T11:21:29.414Z,30.94
2024-04-06T11:22:29.469Z,30.99
2024-04-06T11:23:29.501Z,31.01
2024-04-06T11:24:29.546Z,31.00
2024-04-06T11:25:29.574Z,31.01
2024-04-06T11:26:29.601Z,31.01
2024-04-06T11:27:29.669Z,31.05
2024-04-06T11:28:29.680Z,31.04
2024-04-06T11:29:29.730Z,31.06
2024-04-06T11:30:29.764Z,31.05
2024-04-06T11:31:29.786Z,31.05
2024-04-06T11:32:29.842Z,31.07
2024-04-06T11:33:29.893Z,31.07
2024-04-06T11:34:29.911Z,31.05
2024-04-06T11:35:29.943Z,31.08
2024-04-06T11:36:31.766Z,31.10
2024-04-06T11:37:30.021Z,31.11
2024-04-06T11:38:30.076Z,31.15
2024-04-06T11:39:30.103Z,31.14
2024-04-06T11:40:30.130Z,31.15
2024-04-06T11:41:30.164Z,31.11
2024-04-06T11:42:32.106Z,31.15
2024-04-06T11:43:30.253Z,31.14
2024-04-06T11:44:30.260Z,31.16
2024-04-06T11:45:30.295Z,31.17
2024-04-06T11:46:30.339Z,31.16
2024-04-06T11:47:30.409Z,31.14
2024-04-06T11:48:32.278Z,31.18
2024-04-06T11:49:30.434Z,31.14
2024-04-06T11:50:30.513Z,31.18
2024-04-06T11:51:30.546Z,31.17
2024-04-06T11:52:30.546Z,31.16
2024-04-06T11:53:30.570Z,31.20
2024-04-06T11:54:30.611Z,31.17
2024-04-06T11:55:30.658Z,31.14
2024-04-06T11:56:30.676Z,31.12
2024-04-06T11:57:30.704Z,31.10
2024-04-06T11:58:30.758Z,31.17
2024-04-06T11:59:30.791Z,31.17
2024-04-06T12:00:30.811Z,31.19
2024-04-06T12:01:30.909Z,31.19
2024-04-06T12:02:30.868Z,31.16
2024-04-06T12:03:30.900Z,31.16
2024-04-06T12:04:30.944Z,31.15
2024-04-06T12:05:30.979Z,31.13
2024-04-06T12:06:30.995Z,31.18
2024-04-06T12:07:31.035Z,31.21
2024-04-06T12:08:31.054Z,31.20
2024-04-06T12:09:31.092Z,31.19
2024-04-06T12:10:31.131Z,31.18
2024-04-06T12:11:31.149Z,31.15
2024-04-06T12:12:31.198Z,31.19
2024-04-06T12:13:31.194Z,31.18
2024-04-06T12:14:31.226Z,31.18
2024-04-06T12:15:31.256Z,31.19
2024-04-06T12:16:31.270Z,31.19
2024-04-06T12:17:31.329Z,31.22
2024-04-06T12:18:31.322Z,31.22
2024-04-06T12:19:31.383Z,31.18
2024-04-06T12:20:31.378Z,31.22
2024-04-06T12:21:31.393Z,31.25
2024-04-06T12:22:31.425Z,31.22
2024-04-06T12:23:31.458Z,31.21
2024-04-06T12:24:31.469Z,31.19
2024-04-06T12:25:31.493Z,31.22
2024-04-06T12:26:31.527Z,31.22
2024-04-06T12:27:31.536Z,31.22
2024-04-06T12:28:31.565Z,31.22
2024-04-06T12:29:31.599Z,31.19
2024-04-06T12:30:31.597Z,31.18
2024-04-06T12:31:31.597Z,31.18
2024-04-06T12:32:31.635Z,31.13
2024-04-06T12:33:31.633Z,31.14
2024-04-06T12:34:31.672Z,31.13
2024-04-06T12:35:31.666Z,31.19
2024-04-06T12:36:31.683Z,31.17
2024-04-06T12:37:31.696Z,31.16
2024-04-06T12:38:31.725Z,31.15
2024-04-06T12:39:31.711Z,31.20
2024-04-06T12:40:31.719Z,31.13
2024-04-06T12:41:31.792Z,31.18
2024-04-06T12:42:31.736Z,31.15
2024-04-06T12:43:31.789Z,31.13
2024-04-06T12:44:31.751Z,31.15
2024-04-06T12:45:31.780Z,31.12
2024-04-06T12:46:31.794Z,31.15
2024-04-06T12:47:31.827Z,31.15
2024-04-06T12:48:31.812Z,31.15
2024-04-06T12:49:31.830Z,31.15
2024-04-06T12:50:31.838Z,31.07
2024-04-06T12:51:31.834Z,31.15
2024-04-06T12:52:31.832Z,31.12
2024-04-06T12:53:31.835Z,31.11
2024-04-06T12:54:31.865Z,31.14
2024-04-06T12:55:31.915Z,31.12
2024-04-06T12:56:31.877Z,31.15
2024-04-06T12:57:31.868Z,31.10
2024-04-06T12:58:31.917Z,31.12